Time;durP1;ratioP1;P1;durP2;ratioP2;P2;SDS_P1;SDS_P2;PMS_P1;PMS_P2;Temp;Humidity;BMP_temperature;BMP_pressure;BME280_temperature;BME280_humidity;BME280_pressure;Samples;Min_cycle;Max_cycle;Signal;HPM_P1;HPM_P2
2023/04/19 00:01:00;;;;;;;4.07;2.67;;;13.10;99.90;;;13.22;92.12;101925.47;5136485;28;20515;-71
2023/04/19 00:03:32;;;;;;;6.38;3.50;;;13.20;99.90;;;13.22;91.85;101920.25;5137053;28;20077;-72
2023/04/19 00:06:07;;;;;;;5.15;3.47;;;13.10;99.90;;;13.23;92.29;101922.03;5139550;28;20543;-71
2023/04/19 00:08:39;;;;;;;5.35;3.38;;;13.20;99.90;;;13.25;92.27;101925.63;5140462;28;20403;-70
2023/04/19 00:11:11;;;;;;;7.15;2.70;;;13.10;99.90;;;13.25;92.10;101915.16;5138037;28;20039;-71
2023/04/19 00:13:45;;;;;;;4.22;2.55;;;13.10;99.90;;;13.28;92.12;101920.50;5127656;28;20043;-70
2023/04/19 00:16:18;;;;;;;3.70;2.53;;;13.20;99.90;;;13.30;92.69;101913.63;5140199;28;20070;-71
2023/04/19 00:18:50;;;;;;;4.57;2.88;;;13.20;99.90;;;13.32;93.20;101915.41;5138194;28;20050;-69
2023/04/19 00:21:22;;;;;;;5.10;3.20;;;13.20;99.90;;;13.29;93.22;101917.06;5140945;28;20118;-71
2023/04/19 00:23:54;;;;;;;5.28;2.70;;;13.20;99.90;;;13.27;93.37;101910.88;5134415;28;20038;-70
2023/04/19 00:26:27;;;;;;;7.70;3.60;;;13.20;99.90;;;13.22;93.10;101919.34;5142390;28;20491;-72
2023/04/19 00:29:03;;;;;;;5.13;3.00;;;13.10;99.90;;;13.24;93.07;101907.25;5138092;28;20065;-72
2023/04/19 00:31:35;;;;;;;5.15;2.92;;;13.10;99.90;;;13.19;93.26;101909.63;5142676;28;20046;-72
2023/04/19 00:34:09;;;;;;;6.65;3.40;;;13.10;99.90;;;13.16;93.19;101919.06;5138679;28;20642;-71
2023/04/19 00:36:41;;;;;;;5.85;3.20;;;13.10;99.90;;;13.13;93.69;101905.84;5135753;28;20054;-71
2023/04/19 00:39:14;;;;;;;6.05;3.72;;;13.00;99.90;;;13.12;93.80;101906.69;5130151;28;20058;-70
2023/04/19 00:41:46;;;;;;;7.03;3.90;;;13.00;99.90;;;13.04;93.90;101909.00;5123878;28;20126;-72
2023/04/19 00:44:20;;;;;;;6.97;3.72;;;13.00;99.90;;;13.02;94.05;101905.41;5124467;28;20044;-71
2023/04/19 00:46:52;;;;;;;5.45;3.03;;;13.00;99.90;;;13.06;94.20;101901.19;5131350;28;20042;-71
2023/04/19 00:49:24;;;;;;;5.60;3.20;;;13.00;99.90;;;13.07;94.16;101898.63;5133811;28;20058;-70
2023/04/19 00:51:57;;;;;;;6.70;3.60;;;13.00;99.90;;;13.09;94.53;101896.06;5132750;28;20058;-72
2023/04/19 00:54:30;;;;;;;5.65;3.22;;;13.00;99.90;;;13.09;94.41;101902.19;5138916;28;20066;-70
2023/04/19 00:57:02;;;;;;;6.82;3.40;;;13.00;99.90;;;13.06;94.47;101904.72;5132515;28;20053;-71
2023/04/19 00:59:36;;;;;;;6.28;3.42;;;13.00;99.90;;;13.01;94.70;101898.38;5128093;28;20070;-69
2023/04/19 01:02:09;;;;;;;5.40;3.10;;;12.90;99.90;;;12.98;94.80;101893.91;5137807;28;20043;-71
2023/04/19 01:04:41;;;;;;;5.55;3.03;;;12.90;99.90;;;12.87;95.38;101884.72;5122461;28;20047;-70
2023/04/19 01:07:14;;;;;;;6.22;2.63;;;12.90;99.90;;;12.88;95.79;101880.38;5134967;28;20424;-71
2023/04/19 01:09:48;;;;;;;5.18;3.22;;;12.90;99.90;;;12.90;95.90;101883.94;5137801;28;20046;-70
2023/04/19 01:12:20;;;;;;;5.60;3.17;;;12.80;99.90;;;12.90;96.16;101881.31;5149488;28;20058;-71
2023/04/19 01:14:54;;;;;;;4.25;2.53;;;12.90;99.90;;;12.91;96.12;101881.41;5134798;28;20050;-72
2023/04/19 01:17:27;;;;;;;4.72;3.15;;;12.80;99.90;;;12.91;96.13;101885.72;5137781;28;20447;-71
2023/04/19 01:20:01;;;;;;;6.45;3.25;;;12.80;99.90;;;12.85;96.58;101882.88;5123215;28;20047;-72
2023/04/19 01:22:36;;;;;;;4.35;2.60;;;12.80;99.90;;;12.84;96.51;101881.06;5124649;28;20105;-71
2023/04/19 01:25:10;;;;;;;3.85;2.65;;;12.80;99.90;;;12.84;96.54;101875.81;5138393;28;20039;-69
2023/04/19 01:27:43;;;;;;;4.13;2.45;;;12.70;99.90;;;12.79;96.93;101873.03;5123836;28;20493;-71
2023/04/19 01:30:15;;;;;;;6.85;3.25;;;12.70;99.90;;;12.70;97.54;101875.22;5121576;28;20074;-71
2023/04/19 01:32:47;;;;;;;5.80;3.15;;;12.70;99.90;;;12.66;97.68;101874.22;5123312;28;20050;-71
2023/04/19 01:35:20;;;;;;;5.82;2.90;;;12.70;99.90;;;12.64;98.33;101870.63;5130213;28;20576;-71
2023/04/19 01:37:55;;;;;;;7.63;3.83;;;12.60;99.90;;;12.57;99.23;101873.81;5127924;28;20051;-71
2023/04/19 01:40:27;;;;;;;;;;;12.60;99.90;;;12.52;99.86;101870.13;5152784;28;20563;-70
2023/04/19 01:42:59;;;;;;;7.55;3.47;;;12.50;99.90;;;12.49;100.00;101867.34;5131288;28;20374;-70
2023/04/19 01:45:32;;;;;;;7.38;3.20;;;12.50;99.90;;;12.50;99.88;101866.50;5122425;28;20123;-70
2023/04/19 01:48:05;;;;;;;5.07;3.15;;;12.50;99.90;;;12.51;100.00;101865.69;5131427;28;20113;-72
2023/04/19 01:50:39;;;;;;;6.90;3.20;;;12.40;99.90;;;12.49;99.93;101859.50;5137783;28;20047;-73
2023/04/19 01:53:13;;;;;;;6.05;3.15;;;12.40;99.90;;;12.48;100.00;101857.72;5141072;28;20043;-71
2023/04/19 01:55:46;;;;;;;6.93;2.65;;;12.40;99.90;;;12.46;100.00;101862.88;5143303;28;20050;-72
2023/04/19 01:58:18;;;;;;;7.07;3.00;;;12.40;99.90;;;12.44;100.00;101861.91;5138229;28;20109;-69
2023/04/19 02:00:52;;;;;;;4.18;2.45;;;12.30;99.90;;;12.42;100.00;101854.84;5129231;28;20192;-70
2023/04/19 02:03:24;;;;;;;5.90;3.03;;;12.30;99.90;;;12.38;100.00;101865.97;5127103;28;20046;-70
2023/04/19 02:05:56;;;;;;;5.78;3.60;;;12.20;99.90;;;12.28;100.00;101856.84;5157647;28;20056;-72
2023/04/19 02:08:29;;;;;;;6.38;3.15;;;12.20;99.90;;;12.29;100.00;101860.34;5126137;28;20138;-71
2023/04/19 02:11:07;;;;;;;4.60;2.50;;;12.20;99.90;;;12.31;100.00;101859.56;5139237;28;20380;-70
2023/04/19 02:13:40;;;;;;;6.80;3.47;;;12.20;99.90;;;12.31;100.00;101854.34;5136587;28;20098;-71
2023/04/19 02:16:12;;;;;;;4.85;3.10;;;12.20;99.90;;;12.33;100.00;101851.81;5125541;28;20051;-70
2023/04/19 02:18:45;;;;;;;5.30;2.90;;;12.20;99.90;;;12.38;100.00;101847.66;5133309;28;20401;-72
2023/04/19 02:21:17;;;;;;;6.10;3.85;;;12.30;99.90;;;12.40;100.00;101839.09;5144538;28;20416;-70
2023/04/19 02:23:51;;;;;;;6.68;3.47;;;12.30;99.90;;;12.43;100.00;101848.78;5156970;28;20814;-71
2023/04/19 02:26:23;;;;;;;6.05;3.35;;;12.30;99.90;;;12.46;100.00;101843.69;5144674;28;20085;-72
2023/04/19 02:28:55;;;;;;;5.55;3.30;;;12.30;99.90;;;12.48;100.00;101844.63;5127752;28;20055;-71
2023/04/19 02:31:28;;;;;;;5.93;2.88;;;12.30;99.90;;;12.49;100.00;101844.69;5141053;28;20408;-72
2023/04/19 02:34:01;;;;;;;4.35;2.80;;;12.40;99.90;;;12.52;100.00;101849.19;5134222;28;20154;-72
2023/04/19 02:36:33;;;;;;;4.05;2.47;;;12.40;99.90;;;12.52;100.00;101843.97;5126775;28;20416;-70
2023/04/19 02:39:11;;;;;;;5.35;3.03;;;12.40;99.90;;;12.51;100.00;101847.38;5140126;28;20074;-70
2023/04/19 02:41:44;;;;;;;4.80;2.88;;;12.40;99.90;;;12.49;100.00;101849.94;5140773;28;20075;-71
2023/04/19 02:44:16;;;;;;;4.85;2.72;;;12.40;99.90;;;12.49;100.00;101851.66;5141094;28;20058;-71
2023/04/19 02:46:49;;;;;;;5.05;2.88;;;12.30;99.90;;;12.47;100.00;101846.38;5140560;28;20047;-70
2023/04/19 02:49:21;;;;;;;4.03;2.55;;;12.30;99.90;;;12.48;100.00;101842.03;5152173;28;20061;-71
2023/04/19 02:51:54;;;;;;;4.22;2.40;;;12.30;99.90;;;12.47;100.00;101841.13;5132585;28;20069;-70
2023/04/19 02:54:28;;;;;;;5.75;3.13;;;12.30;99.90;;;12.47;100.00;101845.47;5125389;28;20055;-72
2023/04/19 02:57:00;;;;;;;6.65;3.35;;;12.30;99.90;;;12.48;100.00;101842.03;5140497;28;20428;-71
2023/04/19 02:59:33;;;;;;;8.32;4.30;;;12.30;99.90;;;12.48;100.00;101836.78;5125390;28;20098;-72
2023/04/19 03:02:07;;;;;;;7.53;3.80;;;12.40;99.90;;;12.48;100.00;101847.25;5141421;28;20141;-69
2023/04/19 03:04:39;;;;;;;6.05;3.58;;;12.40;99.90;;;12.49;100.00;101841.19;5131037;28;20459;-69
2023/04/19 03:07:12;;;;;;;7.03;3.38;;;12.40;99.90;;;12.51;100.00;101844.75;5152577;28;20464;-70
2023/04/19 03:09:47;;;;;;;5.13;3.05;;;12.40;99.90;;;12.55;100.00;101838.84;5129584;28;20122;-72
2023/04/19 03:12:19;;;;;;;7.97;4.13;;;12.40;99.90;;;12.54;100.00;101837.06;5143721;28;20098;-71
2023/04/19 03:14:52;;;;;;;8.48;3.80;;;12.40;99.90;;;12.54;100.00;101837.06;5151896;28;20153;-71
2023/04/19 03:17:24;;;;;;;5.93;3.58;;;12.50;99.90;;;12.55;100.00;101835.34;5139372;28;20054;-70
2023/04/19 03:19:57;;;;;;;6.65;3.67;;;12.50;99.90;;;12.51;100.00;101834.28;5143201;28;20464;-70
2023/04/19 03:22:30;;;;;;;7.38;3.67;;;12.40;99.90;;;12.50;100.00;101828.19;5138527;28;20402;-69
2023/04/19 03:25:04;;;;;;;5.47;3.50;;;12.40;99.90;;;12.52;100.00;101828.28;5123902;28;20057;-69
2023/04/19 03:27:36;;;;;;;7.72;3.58;;;12.40;99.90;;;12.53;100.00;101824.81;5129762;28;20532;-70
2023/04/19 03:30:13;;;;;;;6.43;3.63;;;12.40;99.90;;;12.53;100.00;101830.06;5134251;28;20054;-72
2023/04/19 03:32:48;;;;;;;7.05;3.80;;;12.40;99.90;;;12.53;100.00;101830.06;5152088;28;20043;-72
2023/04/19 03:35:24;;;;;;;7.60;3.65;;;12.50;99.90;;;12.53;100.00;101830.06;5137126;28;20042;-70
2023/04/19 03:37:57;;;;;;;6.15;3.00;;;12.40;99.90;;;12.57;100.00;101823.22;5139687;28;20073;-71
2023/04/19 03:40:33;;;;;;;6.07;3.15;;;12.50;99.90;;;12.57;100.00;101817.97;5123472;28;20531;-71
2023/04/19 03:43:05;;;;;;;4.93;2.95;;;12.50;99.90;;;12.57;100.00;101813.63;5140773;28;20043;-70
2023/04/19 03:45:40;;;;;;;4.13;2.72;;;12.40;99.90;;;12.58;100.00;101812.81;5137861;28;20067;-70
2023/04/19 03:48:12;;;;;;;4.18;2.67;;;12.50;99.90;;;12.60;100.00;101820.75;5158442;28;20451;-70
2023/04/19 03:50:44;;;;;;;6.60;3.63;;;12.50;99.90;;;12.58;100.00;101812.81;5147809;28;20047;-70
2023/04/19 03:53:20;;;;;;;4.47;2.83;;;12.40;99.90;;;12.57;100.00;101805.78;5131631;28;20051;-70
2023/04/19 03:55:53;;;;;;;5.53;3.50;;;12.50;99.90;;;12.56;100.00;101814.47;5127442;28;20050;-71
2023/04/19 03:58:27;;;;;;;6.47;3.88;;;12.50;99.90;;;12.54;100.00;101816.13;5135855;28;20051;-70
2023/04/19 04:01:07;;;;;;;7.50;3.90;;;12.50;99.90;;;12.53;100.00;101809.13;5148506;28;20043;-71
2023/04/19 04:03:40;;;;;;;8.73;4.72;;;12.40;99.90;;;12.46;100.00;101817.53;5145776;28;20124;-69
2023/04/19 04:06:12;;;;;;;8.13;4.05;;;12.40;99.90;;;12.36;100.00;101813.63;5141601;28;21203;-72
2023/04/19 04:08:45;;;;;;;7.72;4.57;;;12.40;99.90;;;12.35;100.00;101816.16;5131193;28;20075;-70
2023/04/19 04:11:18;;;;;;;6.82;4.15;;;12.30;99.90;;;12.35;100.00;101816.16;5143195;28;20034;-71
2023/04/19 04:13:55;;;;;;;7.40;3.95;;;12.30;99.90;;;12.31;100.00;101815.13;5127097;28;20051;-70
2023/04/19 04:16:31;;;;;;;7.65;4.03;;;12.30;99.90;;;12.31;100.00;101820.34;5139113;28;20039;-71
2023/04/19 04:21:36;;;;;;;7.30;4.78;;;12.30;99.90;;;12.28;100.00;101821.97;5123059;28;20183;-71
2023/04/19 04:24:10;;;;;;;7.90;4.47;;;12.30;99.90;;;12.29;100.00;101818.50;5122009;28;20043;-71
2023/04/19 04:26:51;;;;;;;7.97;4.30;;;12.30;99.90;;;12.29;100.00;101823.75;5133245;28;20120;-71
2023/04/19 04:29:30;;;;;;;8.30;4.20;;;12.30;99.90;;;12.28;100.00;101821.97;5141791;28;20042;-71
2023/04/19 04:32:09;;;;;;;6.63;3.78;;;12.30;99.90;;;12.29;100.00;101819.41;5141703;28;20031;-71
2023/04/19 04:34:44;;;;;;;5.93;3.42;;;12.30;99.90;;;12.32;100.00;101818.63;5142604;28;20499;-70
2023/04/19 04:37:23;;;;;;;6.80;3.75;;;12.30;99.90;;;12.36;100.00;101815.34;5142228;28;20043;-70
2023/04/19 04:39:55;;;;;;;7.43;3.95;;;12.30;99.90;;;12.35;100.00;101816.16;5141696;28;20034;-71
2023/04/19 04:42:30;;;;;;;6.15;3.95;;;12.30;99.90;;;12.33;100.00;101815.22;5143990;28;20119;-71
2023/04/19 04:45:02;;;;;;;7.57;4.25;;;12.30;99.90;;;12.30;100.00;101809.84;5142361;28;20046;-71
2023/04/19 04:47:36;;;;;;;7.68;4.10;;;12.30;99.90;;;12.28;100.00;101811.50;5142118;28;20113;-70
2023/04/19 04:50:11;;;;;;;7.30;3.97;;;12.30;99.90;;;12.27;100.00;101807.09;5141453;28;20129;-71
2023/04/19 04:52:44;;;;;;;9.25;4.65;;;12.20;99.90;;;12.25;100.00;101803.50;5142212;28;20062;-70
2023/04/19 04:55:21;;;;;;;7.18;4.03;;;12.20;99.90;;;12.26;100.00;101813.13;5141757;28;20495;-70
2023/04/19 04:57:55;;;;;;;8.60;4.68;;;12.20;99.90;;;12.21;100.00;101813.84;5141751;28;20048;-70
2023/04/19 05:00:35;;;;;;;7.82;3.97;;;12.20;99.90;;;12.22;100.00;101815.63;5150687;28;20035;-71
2023/04/19 05:03:11;;;;;;;7.75;4.78;;;12.20;99.90;;;12.19;100.00;101807.66;5141895;28;20038;-71
2023/04/19 05:05:51;;;;;;;7.88;4.57;;;12.20;99.90;;;12.20;100.00;101824.25;5140771;28;20047;-71
2023/04/19 05:08:23;;;;;;;7.65;4.40;;;12.20;99.90;;;12.18;100.00;101807.56;5141257;28;20763;-71
2023/04/19 05:10:55;;;;;;;8.10;4.80;;;12.20;99.90;;;12.16;100.00;101812.75;5140594;28;20117;-70
2023/04/19 05:13:32;;;;;;;9.07;4.40;;;12.20;99.90;;;12.21;100.00;101832.16;5141683;28;20051;-71
2023/04/19 05:16:06;;;;;;;8.23;4.30;;;12.20;99.90;;;12.27;100.00;101825.41;5141335;28;20420;-70
2023/04/19 05:18:39;;;;;;;7.70;4.43;;;12.20;99.90;;;12.29;100.00;101819.41;5142874;28;20039;-71
2023/04/19 05:21:13;;;;;;;6.70;4.05;;;12.30;99.90;;;12.31;100.00;101819.47;5140531;28;20134;-70
2023/04/19 05:23:46;;;;;;;9.30;4.75;;;12.30;99.90;;;12.32;100.00;101808.16;5141943;28;20042;-70
2023/04/19 05:26:20;;;;;;;8.50;4.63;;;12.30;99.90;;;12.35;100.00;101808.31;5141597;28;20414;-71
2023/04/19 05:28:56;;;;;;;8.45;4.65;;;12.30;99.90;;;12.35;100.00;101809.22;5141364;28;20157;-71
2023/04/19 05:31:41;;;;;;;7.75;4.18;;;12.30;99.90;;;12.37;100.00;101806.66;5135332;28;20130;-71
2023/04/19 05:34:23;;;;;;;10.27;5.47;;;12.30;99.90;;;12.35;100.00;101808.31;5141297;28;20568;-71
2023/04/19 05:36:56;;;;;;;9.27;5.57;;;12.30;99.90;;;12.28;100.00;101815.00;5141182;28;20043;-71
2023/04/19 05:39:28;;;;;;;9.18;4.70;;;12.20;99.90;;;12.31;100.00;101807.28;5141067;28;20047;-71
2023/04/19 05:42:01;;;;;;;12.10;5.53;;;12.30;99.90;;;12.33;100.00;101807.38;5141731;28;20121;-72
2023/04/19 05:44:34;;;;;;;13.88;5.75;;;12.30;99.90;;;12.27;100.00;101800.16;5142393;28;20039;-71
2023/04/19 05:47:07;;;;;;;13.02;5.93;;;12.30;99.90;;;12.30;100.00;101794.16;5141076;28;20094;-71
2023/04/19 05:49:59;;;;;;;8.32;4.57;;;12.30;99.90;;;12.33;100.00;101797.81;5142051;28;20344;-71
2023/04/19 05:52:36;;;;;;;9.30;5.65;;;12.30;99.90;;;12.36;100.00;101802.25;5141228;28;20045;-71
2023/04/19 05:55:09;;;;;;;9.65;4.60;;;12.30;99.90;;;12.36;100.00;101797.94;5141301;28;20361;-71
2023/04/19 05:57:46;;;;;;;10.18;5.47;;;12.30;99.90;;;12.32;100.00;101802.94;5141001;28;20045;-66
2023/04/19 06:00:21;;;;;;;9.48;5.18;;;12.30;99.90;;;12.35;100.00;101803.09;5140334;28;20053;-65
2023/04/19 06:03:03;;;;;;;9.00;4.78;;;12.30;99.90;;;12.37;100.00;101798.81;5140988;28;20412;-66
2023/04/19 06:05:35;;;;;;;10.32;5.35;;;12.30;99.90;;;12.34;100.00;101801.31;5140745;28;20047;-54
2023/04/19 06:08:08;;;;;;;12.23;6.03;;;12.30;99.90;;;12.31;100.00;101804.66;5140793;28;20045;-53
2023/04/19 06:10:42;;;;;;;10.77;5.70;;;12.30;99.90;;;12.30;100.00;101802.88;5141740;28;20118;-54
2023/04/19 06:13:15;;;;;;;8.18;4.68;;;12.30;99.90;;;12.37;100.00;101806.66;5142032;28;20059;-55
2023/04/19 06:15:49;;;;;;;8.60;5.47;;;12.30;99.90;;;12.40;100.00;101806.81;5140842;28;20508;-53
2023/04/19 06:18:22;;;;;;;11.05;5.40;;;12.30;99.90;;;12.38;100.00;101808.44;5140522;28;20086;-54
2023/04/19 06:20:54;;;;;;;9.88;5.32;;;12.40;99.90;;;12.38;100.00;101808.44;5141858;28;20031;-54
2023/04/19 06:23:26;;;;;;;10.15;5.53;;;12.30;99.90;;;12.38;100.00;101808.44;5134652;28;20487;-54
2023/04/19 06:25:58;;;;;;;12.80;5.90;;;12.30;99.90;;;12.48;100.00;101810.66;5141895;28;20043;-57
2023/04/19 06:28:30;;;;;;;11.60;5.97;;;12.40;99.90;;;12.61;100.00;101805.09;5142639;28;20380;-57
2023/04/19 06:31:04;;;;;;;11.40;5.68;;;12.60;99.90;;;12.74;100.00;101804.78;5141692;28;20130;-55
2023/04/19 06:33:36;;;;;;;11.93;6.28;;;12.70;99.90;;;12.87;100.00;101800.97;5142110;28;20042;-56
2023/04/19 06:36:09;;;;;;;12.95;6.72;;;12.80;99.90;;;12.87;100.00;101805.31;5141998;28;20046;-56
2023/04/19 06:38:43;;;;;;;10.00;5.82;;;12.80;99.90;;;12.84;100.00;101803.44;5141513;28;20047;-56
2023/04/19 06:41:15;;;;;;;11.00;6.22;;;12.90;99.90;;;12.84;99.61;101797.31;5141918;28;20068;-56
2023/04/19 06:43:47;;;;;;;12.27;5.88;;;12.90;99.90;;;12.85;99.50;101791.28;5145643;28;20043;-56
2023/04/19 06:46:20;;;;;;;9.68;5.90;;;12.90;99.90;;;12.91;99.41;101796.72;5144069;28;20046;-56
2023/04/19 06:48:53;;;;;;;9.35;5.22;;;12.90;99.90;;;12.99;99.74;101803.19;5144046;28;20051;-56
2023/04/19 06:51:25;;;;;;;8.70;5.10;;;13.00;99.90;;;13.03;98.77;101803.38;5145027;28;20051;-55
2023/04/19 06:53:57;;;;;;;9.48;5.78;;;13.10;99.90;;;13.04;97.06;101809.53;5145435;28;20520;-54
2023/04/19 06:56:45;;;;;;;8.63;4.90;;;13.10;99.90;;;13.14;97.94;101800.31;5145504;28;20133;-56
2023/04/19 06:59:19;;;;;;;10.15;5.35;;;13.10;99.90;;;13.19;95.51;101806.63;5144774;28;20051;-54
2023/04/19 07:01:53;;;;;;;11.52;5.15;;;13.20;99.90;;;13.06;94.00;101789.53;5145406;28;20415;-54
2023/04/19 07:04:26;;;;;;;8.05;4.90;;;13.10;99.90;;;12.85;93.86;101791.28;5137326;28;20050;-55
2023/04/19 07:06:59;;;;;;;10.65;5.57;;;13.00;99.90;;;12.83;95.04;101798.16;5145413;28;20038;-54
2023/04/19 07:09:31;;;;;;;9.07;4.30;;;12.90;99.90;;;12.90;95.33;101800.19;5144743;28;20547;-55
2023/04/19 07:12:03;;;;;;;6.88;3.60;;;12.90;99.90;;;13.05;95.73;101803.44;5145895;28;20034;-53
2023/04/19 07:14:35;;;;;;;7.30;4.00;;;13.00;99.90;;;13.22;95.52;101798.91;5157039;28;20066;-57
2023/04/19 07:17:08;;;;;;;12.02;5.05;;;13.10;99.90;;;13.26;93.74;101787.75;5147189;28;20050;-55
2023/04/19 07:19:41;;;;;;;6.75;4.55;;;13.10;99.90;;;13.40;93.79;101791.78;5144344;28;20046;-54
2023/04/19 07:22:13;;;;;;;7.65;4.22;;;13.20;99.90;;;13.61;93.61;101783.84;5142142;28;20043;-58
2023/04/19 07:24:45;;;;;;;8.13;5.03;;;13.40;99.90;;;13.81;89.85;101792.47;5142052;28;20126;-53
2023/04/19 07:27:17;;;;;;;7.63;4.28;;;13.60;99.90;;;13.90;88.46;101791.94;5144092;28;20054;-54
2023/04/19 07:29:49;;;;;;;9.15;4.28;;;13.70;99.90;;;13.96;88.37;101774.72;5149203;28;20066;-54
2023/04/19 07:32:23;;;;;;;8.68;4.45;;;13.80;99.90;;;14.11;86.04;101783.13;5144095;28;20043;-54
2023/04/19 07:34:55;;;;;;;6.60;3.95;;;13.90;99.90;;;14.45;85.46;101781.69;5144471;28;20496;-55
2023/04/19 07:37:27;;;;;;;6.68;4.13;;;14.10;99.90;;;14.82;84.20;101777.72;5136791;28;20046;-53
2023/04/19 07:39:59;;;;;;;9.10;3.97;;;14.40;99.80;;;15.16;81.82;101783.22;5143746;28;20042;-53
2023/04/19 07:42:31;;;;;;;6.47;3.75;;;14.70;98.90;;;15.57;81.71;101780.06;5148084;28;20050;-55
2023/04/19 07:45:04;;;;;;;5.85;2.70;;;15.00;98.70;;;16.78;80.83;101776.47;5144425;28;20385;-56
2023/04/19 07:47:38;;;;;;;7.20;3.38;;;15.70;98.90;;;18.11;74.63;101772.44;5144131;28;20050;-55
2023/04/19 07:50:11;;;;;;;6.07;3.65;;;16.70;96.50;;;18.37;68.42;101774.69;5151847;28;20047;-55
2023/04/19 07:52:43;;;;;;;6.40;3.47;;;17.20;91.20;;;18.14;68.70;101783.06;5145834;28;20038;-58
2023/04/19 07:55:15;;;;;;;5.40;3.58;;;17.20;90.20;;;17.73;69.22;101778.69;5145241;28;20053;-58
2023/04/19 07:57:47;;;;;;;6.53;3.35;;;17.10;88.90;;;17.59;68.17;101783.63;5129722;28;20047;-56
2023/04/19 08:00:21;;;;;;;5.57;3.42;;;17.00;86.60;;;17.50;68.49;101775.53;5142069;28;20042;-56
2023/04/19 08:02:55;;;;;;;5.97;3.17;;;16.90;86.40;;;17.90;68.53;101775.53;5151357;28;20058;-56
2023/04/19 08:05:27;;;;;;;;;;;17.10;87.20;;;17.83;67.63;101775.38;5144378;28;20073;-55
2023/04/19 08:07:59;;;;;;;4.20;2.47;;;17.10;85.20;;;18.40;68.05;101769.47;5143296;28;19925;-55
2023/04/19 08:10:32;;;;;;;4.55;2.53;;;17.40;86.50;;;19.61;65.98;101782.00;5148207;28;20068;-56
2023/04/19 08:13:04;;;;;;;3.85;2.58;;;18.00;85.70;;;21.30;62.14;101783.72;5144895;28;20035;-55
2023/04/19 08:15:36;;;;;;;3.67;2.70;;;19.10;82.50;;;22.97;58.11;101782.50;5138363;28;20106;-57
2023/04/19 08:18:10;;;;;;;5.50;2.97;;;20.40;77.40;;;24.32;54.27;101776.72;5145661;28;20499;-57
2023/04/19 08:20:42;;;;;;;3.67;2.42;;;21.50;72.00;;;25.21;51.26;101773.38;5140105;28;20043;-56
2023/04/19 08:23:14;;;;;;;3.92;2.33;;;22.30;68.00;;;26.34;49.15;101769.28;5140070;28;20492;-54
2023/04/19 08:25:46;;;;;;;3.97;2.33;;;23.30;64.70;;;27.27;47.78;101765.97;5150157;28;20042;-58
2023/04/19 08:28:19;;;;;;;5.38;2.33;;;24.20;62.50;;;27.76;45.83;101773.03;5154397;28;20042;-54
2023/04/19 08:30:51;;;;;;;3.85;2.40;;;24.70;60.00;;;28.21;45.96;101767.59;5146219;28;20038;-56
2023/04/19 08:33:24;;;;;;;4.22;2.55;;;25.10;59.30;;;28.59;44.77;101768.50;5154995;28;20054;-54
2023/04/19 08:35:56;;;;;;;5.18;3.15;;;25.50;57.90;;;28.24;43.11;101762.19;5146778;28;20471;-56
2023/04/19 08:38:28;;;;;;;4.30;2.40;;;25.40;55.40;;;28.07;43.09;101759.00;5142055;28;20047;-55
2023/04/19 08:41:01;;;;;;;4.05;2.40;;;25.20;55.20;;;28.46;43.50;101757.19;5151136;28;20115;-54
2023/04/19 08:43:37;;;;;;;5.82;2.53;;;25.50;55.50;;;28.91;42.78;101755.19;5150085;28;20042;-55
2023/04/19 08:46:11;;;;;;;3.80;2.30;;;25.80;55.10;;;29.12;42.00;101756.41;5143049;28;20122;-56
2023/04/19 08:48:47;;;;;;;3.42;2.25;;;26.00;54.00;;;28.89;41.54;101751.63;5143164;28;20047;-54
2023/04/19 08:51:19;;;;;;;3.22;2.25;;;25.90;53.30;;;28.89;41.71;101750.75;5143008;28;20042;-55
2023/04/19 08:53:53;;;;;;;3.88;2.40;;;25.90;53.60;;;28.84;40.58;101750.00;5143219;28;20370;-56
2023/04/19 08:56:26;;;;;;;4.40;2.20;;;25.80;52.70;;;28.68;40.83;101749.50;5143089;28;20451;-55
2023/04/19 08:58:58;;;;;;;4.28;2.70;;;25.70;52.80;;;28.07;41.07;101740.22;5150921;28;20050;-58
2023/04/19 09:01:31;;;;;;;5.10;2.72;;;25.40;52.50;;;28.00;41.42;101738.59;5147861;28;20506;-57
2023/04/19 09:04:07;;;;;;;4.60;2.70;;;25.30;52.80;;;27.76;42.12;101738.22;5121680;28;20042;-55
2023/04/19 09:06:41;;;;;;;3.90;2.55;;;25.20;53.10;;;27.42;41.70;101731.78;5149368;28;20078;-55
2023/04/19 09:09:18;;;;;;;3.63;2.20;;;25.00;52.70;;;27.22;42.30;101730.38;5150988;28;20046;-56
2023/04/19 09:11:51;;;;;;;3.72;2.50;;;24.90;53.20;;;26.69;42.35;101729.56;5149996;28;20430;-55
2023/04/19 09:14:23;;;;;;;3.95;2.38;;;24.60;52.70;;;26.18;43.21;101721.44;5142682;28;20492;-55
2023/04/19 09:17:13;;;;;;;3.15;2.38;;;24.40;53.00;;;25.76;44.28;101716.72;5150477;28;20034;-57
2023/04/19 09:19:50;;;;;;;3.75;2.47;;;24.20;53.90;;;25.33;44.41;101717.22;5143798;28;20038;-55
2023/04/19 09:22:22;;;;;;;3.53;2.40;;;24.00;53.60;;;24.70;44.34;101714.28;5154412;28;20046;-56
2023/04/19 09:24:54;;;;;;;4.18;2.53;;;23.70;53.40;;;23.87;44.99;101721.97;5145548;28;20051;-57
2023/04/19 09:27:29;;;;;;;4.15;2.70;;;23.10;53.30;;;23.25;45.87;101708.00;5138592;28;20066;-56
2023/04/19 09:30:03;;;;;;;3.58;2.70;;;22.70;53.90;;;22.88;45.70;101713.38;5144059;28;20043;-54
2023/04/19 09:32:47;;;;;;;3.28;2.58;;;22.30;53.60;;;22.67;46.99;101708.06;5142885;28;20412;-55
2023/04/19 09:35:21;;;;;;;3.88;2.58;;;22.10;54.90;;;22.57;46.92;101711.63;5151079;28;20047;-53
2023/04/19 09:38:00;;;;;;;5.95;3.30;;;22.00;54.90;;;22.27;46.61;101705.41;5134005;28;20050;-57
2023/04/19 09:40:32;;;;;;;4.20;2.85;;;21.70;54.60;;;22.13;48.32;101697.41;5139132;28;20046;-54
2023/04/19 09:43:04;;;;;;;3.72;2.47;;;21.60;56.10;;;22.06;49.99;101692.06;5140108;28;20397;-53
2023/04/19 09:45:42;;;;;;;3.90;2.53;;;21.50;57.40;;;22.07;50.01;101693.84;5148451;28;20039;-54
2023/04/19 09:48:14;;;;;;;4.30;2.65;;;21.50;57.80;;;21.99;48.75;101695.59;5142339;28;20093;-52
2023/04/19 09:50:54;;;;;;;4.10;2.63;;;21.40;56.60;;;21.82;48.62;101693.78;5141812;28;20744;-53
2023/04/19 09:53:32;;;;;;;4.88;2.65;;;21.30;56.50;;;21.64;48.86;101691.06;5146370;28;20042;-54
2023/04/19 09:56:06;;;;;;;3.78;2.28;;;21.10;56.60;;;21.55;48.94;101693.69;5144906;28;20049;-55
2023/04/19 09:58:38;;;;;;;4.68;2.78;;;21.00;56.80;;;21.43;48.68;101688.31;5141102;28;20514;-56
2023/04/19 10:01:11;;;;;;;4.82;2.60;;;20.90;56.50;;;21.34;48.43;101674.16;5149326;28;20046;-55
2023/04/19 10:03:45;;;;;;;5.22;2.22;;;20.80;56.30;;;21.35;50.33;101681.22;5156629;28;20046;-54
2023/04/19 10:06:19;;;;;;;3.20;2.30;;;20.80;58.00;;;21.34;48.71;101679.47;5160339;28;20160;-54
2023/04/19 10:08:54;;;;;;;3.03;2.30;;;20.80;56.40;;;21.36;49.66;101672.38;5147201;28;20047;-56
2023/04/19 10:11:32;;;;;;;5.15;2.35;;;20.80;57.40;;;21.50;49.22;101679.50;5142726;28;20129;-54
2023/04/19 10:14:07;;;;;;;3.50;2.38;;;20.90;57.40;;;21.61;48.30;101668.06;5159816;28;20491;-54
2023/04/19 10:16:40;;;;;;;4.25;2.75;;;21.00;56.50;;;21.37;47.46;101674.16;5163774;28;20049;-53
2023/04/19 10:21:47;;;;;;;3.40;2.10;;;20.70;54.10;;;20.72;45.67;101677.28;5059190;29;20056;-61
2023/04/19 10:24:20;;;;;;;5.32;2.50;;;20.40;53.60;;;20.36;45.71;101687.56;5058861;29;20522;-58
2023/04/19 10:27:13;;;;;;;5.22;2.83;;;20.10;53.80;;;19.76;45.51;101672.00;5058118;29;20132;-58
2023/04/19 10:29:56;;;;;;;3.33;2.30;;;19.60;53.20;;;19.39;46.97;101677.69;5060236;29;20060;-60
2023/04/19 10:32:29;;;;;;;4.75;2.20;;;19.30;54.50;;;19.42;49.39;101673.31;5058925;29;20084;-59
2023/04/19 10:35:08;;;;;;;3.53;2.35;;;19.20;56.60;;;19.76;48.95;101672.00;5066439;29;20044;-59
2023/04/19 10:37:42;;;;;;;3.80;2.30;;;19.40;56.70;;;19.90;47.35;101671.25;5066649;29;20047;-59
2023/04/19 10:41:00;;;;;;;3.25;2.28;;;19.40;55.30;;;19.99;46.19;101666.03;5065432;29;20122;-58
2023/04/19 10:43:34;;;;;;;4.82;2.40;;;19.50;54.50;;;19.70;45.77;101669.28;5059414;29;20049;-59